createdAt,value
2019-05-18T00:00:16.100Z,12.79
2019-05-18T00:02:43.017Z,12.72
2019-05-18T00:05:10.998Z,12.75
2019-05-18T00:07:37.971Z,12.70
2019-05-18T00:10:06.093Z,12.66
2019-05-18T00:12:33.327Z,12.75
2019-05-18T00:15:00.548Z,12.76
2019-05-18T00:17:27.352Z,12.72
2019-05-18T00:19:54.924Z,12.63
2019-05-18T00:22:22.020Z,12.63
2019-05-18T00:24:49.064Z,12.56
2019-05-18T00:27:16.012Z,12.62
2019-05-18T00:29:43.115Z,12.62
2019-05-18T00:32:10.020Z,12.62
2019-05-18T00:34:37.150Z,12.56
2019-05-18T00:37:04.144Z,12.53
2019-05-18T00:39:31.170Z,12.48
2019-05-18T00:41:58.029Z,12.43
2019-05-18T00:44:25.394Z,12.35
2019-05-18T00:46:52.611Z,12.22
2019-05-18T00:49:19.512Z,12.12
2019-05-18T00:51:46.880Z,12.12
2019-05-18T00:54:13.656Z,12.12
2019-05-18T00:56:40.609Z,12.16
2019-05-18T00:59:07.589Z,12.23
2019-05-18T01:01:34.841Z,12.29
2019-05-18T01:04:01.662Z,12.30
2019-05-18T01:06:28.599Z,12.31
2019-05-18T01:08:55.540Z,12.39
2019-05-18T01:11:22.557Z,12.38
2019-05-18T01:13:49.509Z,12.32
2019-05-18T01:16:16.409Z,12.24
2019-05-18T01:18:43.433Z,12.18
2019-05-18T01:21:10.990Z,12.14
2019-05-18T01:23:37.893Z,12.14
2019-05-18T01:26:05.307Z,12.09
2019-05-18T01:28:32.087Z,12.12
2019-05-18T01:30:59.089Z,12.08
2019-05-18T01:33:25.973Z,11.96
2019-05-18T01:35:55.742Z,11.95
2019-05-18T01:38:22.749Z,11.91
2019-05-18T01:40:49.785Z,11.97
2019-05-18T01:43:16.820Z,11.94
2019-05-18T01:45:43.860Z,12.02
2019-05-18T01:48:13.947Z,12.00
2019-05-18T01:50:39.415Z,12.00
2019-05-18T01:53:06.495Z,11.98
2019-05-18T01:55:33.481Z,11.98
2019-05-18T01:58:00.279Z,11.91
2019-05-18T02:00:27.389Z,11.79
2019-05-18T02:02:54.682Z,11.69
2019-05-18T02:05:21.919Z,11.62
2019-05-18T02:07:48.837Z,11.59
2019-05-18T02:10:16.525Z,11.72
2019-05-18T02:12:43.715Z,11.76
2019-05-18T02:15:11.693Z,11.73
2019-05-18T02:17:38.714Z,11.73
2019-05-18T02:20:09.230Z,11.73
2019-05-18T02:22:36.080Z,11.69
2019-05-18T02:25:07.835Z,11.56
2019-05-18T02:27:37.476Z,11.61
2019-05-18T02:30:08.445Z,11.67
2019-05-18T02:32:35.613Z,11.72
2019-05-18T02:35:06.578Z,11.69
2019-05-18T02:37:33.520Z,11.74
2019-05-18T02:40:00.320Z,11.77
2019-05-18T02:42:30.726Z,11.78
2019-05-18T02:44:56.403Z,11.75
2019-05-18T02:47:26.105Z,11.77
2019-05-18T02:49:53.138Z,11.73
2019-05-18T02:52:20.107Z,11.72
2019-05-18T02:54:46.900Z,11.67
2019-05-18T02:57:14.127Z,11.62
2019-05-18T02:59:41.117Z,11.66
2019-05-18T03:02:07.988Z,11.66
2019-05-18T03:04:35.078Z,11.63
2019-05-18T03:07:02.198Z,11.58
2019-05-18T03:09:29.350Z,11.55
2019-05-18T03:11:56.399Z,11.53
2019-05-18T03:14:26.137Z,11.55
2019-05-18T03:16:53.393Z,11.53
2019-05-18T03:19:22.616Z,11.52
2019-05-18T03:21:49.716Z,11.52
2019-05-18T03:24:16.520Z,11.52
2019-05-18T03:26:43.910Z,11.62
2019-05-18T03:29:10.818Z,11.60
2019-05-18T03:31:37.761Z,11.61
2019-05-18T03:34:04.704Z,11.59
2019-05-18T03:36:31.580Z,11.56
2019-05-18T03:38:58.538Z,11.49
2019-05-18T03:41:25.381Z,11.42
2019-05-18T03:43:52.490Z,11.37
2019-05-18T03:46:19.262Z,11.29
2019-05-18T03:48:46.611Z,11.31
2019-05-18T03:51:14.486Z,11.38
2019-05-18T03:53:41.388Z,11.40
2019-05-18T03:56:08.172Z,11.44
2019-05-18T03:58:34.989Z,11.48
2019-05-18T04:01:01.870Z,11.44
2019-05-18T04:03:28.691Z,11.37
2019-05-18T04:05:55.505Z,11.31
2019-05-18T04:08:22.323Z,11.16
2019-05-18T04:10:49.308Z,11.12
2019-05-18T04:13:17.062Z,11.16
2019-05-18T04:15:43.880Z,11.21
2019-05-18T04:18:10.821Z,11.25
2019-05-18T04:20:37.753Z,11.29
2019-05-18T04:23:04.700Z,11.25
2019-05-18T04:25:31.668Z,11.33
2019-05-18T04:27:58.667Z,11.43
2019-05-18T04:30:25.739Z,11.46
2019-05-18T04:32:52.551Z,11.50
2019-05-18T04:35:19.865Z,11.56
2019-05-18T04:37:46.779Z,11.56
2019-05-18T04:40:14.252Z,11.55
2019-05-18T04:42:41.610Z,11.53
2019-05-18T04:45:08.898Z,11.47
2019-05-18T04:47:35.931Z,11.46
2019-05-18T04:50:06.460Z,11.47
2019-05-18T04:52:33.378Z,11.46
2019-05-18T04:55:00.446Z,11.48
2019-05-18T04:57:27.654Z,11.48
2019-05-18T04:59:54.474Z,11.48
2019-05-18T05:02:21.496Z,11.40
2019-05-18T05:04:51.794Z,11.46
2019-05-18T05:07:17.070Z,11.49
2019-05-18T05:09:44.288Z,11.51
2019-05-18T05:12:11.203Z,11.58
2019-05-18T05:14:38.050Z,11.64
2019-05-18T05:17:04.817Z,11.68
2019-05-18T05:19:31.660Z,11.66
2019-05-18T05:21:58.524Z,11.70
2019-05-18T05:24:25.408Z,11.74
2019-05-18T05:26:52.167Z,11.78
2019-05-18T05:29:19.472Z,11.82
2019-05-18T05:31:46.354Z,11.89
2019-05-18T05:34:13.282Z,11.91
2019-05-18T05:36:42.976Z,11.89
2019-05-18T05:39:09.865Z,11.91
2019-05-18T05:41:36.782Z,11.99
2019-05-18T05:44:04.058Z,12.07
2019-05-18T05:46:30.828Z,12.15
2019-05-18T05:48:57.701Z,12.21
2019-05-18T05:51:24.915Z,12.33
2019-05-18T05:53:51.936Z,12.45
2019-05-18T05:56:18.905Z,12.53
2019-05-18T05:58:45.956Z,12.67
2019-05-18T06:01:12.884Z,12.71
2019-05-18T06:03:39.964Z,12.74
2019-05-18T06:06:07.027Z,12.85
2019-05-18T06:08:34.257Z,12.96
2019-05-18T06:11:01.158Z,13.06
2019-05-18T06:13:28.043Z,13.17
2019-05-18T06:15:55.252Z,13.28
2019-05-18T06:18:22.195Z,13.34
2019-05-18T06:20:51.735Z,13.42
2019-05-18T06:23:23.700Z,13.50
2019-05-18T06:25:50.711Z,13.57
2019-05-18T06:28:17.545Z,13.66
2019-05-18T06:30:44.993Z,13.73
2019-05-18T06:33:11.765Z,13.80
2019-05-18T06:35:38.668Z,13.89
2019-05-18T06:38:05.823Z,13.95
2019-05-18T06:40:33.210Z,13.97
2019-05-18T06:43:00.155Z,14.00
2019-05-18T06:45:27.113Z,14.04
2019-05-18T06:47:54.257Z,14.08
2019-05-18T06:50:28.150Z,14.13
2019-05-18T06:52:55.241Z,14.20
2019-05-18T06:55:24.938Z,14.28
2019-05-18T06:57:56.633Z,14.33
2019-05-18T07:00:25.344Z,14.38
2019-05-18T07:02:52.670Z,14.45
2019-05-18T07:05:19.675Z,14.48
2019-05-18T07:07:46.985Z,14.44
2019-05-18T07:10:14.108Z,14.40
2019-05-18T07:12:42.998Z,14.43
2019-05-18T07:15:11.218Z,14.50
2019-05-18T07:17:38.545Z,14.56
2019-05-18T07:20:12.845Z,14.61
2019-05-18T07:22:40.123Z,14.63
2019-05-18T07:25:07.363Z,14.69
2019-05-18T07:27:34.942Z,14.78
2019-05-18T07:30:07.735Z,14.83
2019-05-18T07:32:34.645Z,14.88
2019-05-18T07:35:02.279Z,14.90
2019-05-18T07:37:29.713Z,14.95
2019-05-18T07:39:56.571Z,14.98
2019-05-18T07:42:23.547Z,14.84
2019-05-18T07:44:50.419Z,14.89
2019-05-18T07:47:17.672Z,15.00
2019-05-18T07:49:44.768Z,15.13
2019-05-18T07:52:11.916Z,15.15
2019-05-18T07:54:38.909Z,15.17
2019-05-18T07:57:05.780Z,15.18
2019-05-18T07:59:32.546Z,15.34
2019-05-18T08:01:59.437Z,15.53
2019-05-18T08:04:26.194Z,15.67
2019-05-18T08:06:53.196Z,15.73
2019-05-18T08:09:19.950Z,15.77
2019-05-18T08:11:46.768Z,15.83
2019-05-18T08:14:13.672Z,15.83
2019-05-18T08:16:40.594Z,15.81
2019-05-18T08:19:08.044Z,15.92
2019-05-18T08:21:35.252Z,16.09
2019-05-18T08:24:02.691Z,16.22
2019-05-18T08:26:29.748Z,16.30
2019-05-18T08:28:58.394Z,16.45
2019-05-18T08:31:25.459Z,16.58
2019-05-18T08:33:55.262Z,16.64
2019-05-18T08:36:25.365Z,16.75
2019-05-18T08:38:52.226Z,16.80
2019-05-18T08:41:19.161Z,16.88
2019-05-18T08:43:45.932Z,16.83
2019-05-18T08:46:13.271Z,16.88
2019-05-18T08:48:40.213Z,17.06
2019-05-18T08:51:09.410Z,17.18
2019-05-18T08:53:36.943Z,17.26
2019-05-18T08:56:03.946Z,17.43
2019-05-18T08:58:31.250Z,17.57
2019-05-18T09:00:58.764Z,17.71
2019-05-18T09:03:26.200Z,17.78
2019-05-18T09:05:52.982Z,17.85
2019-05-18T09:08:19.917Z,17.94
2019-05-18T09:10:46.784Z,18.01
2019-05-18T09:13:14.213Z,18.11
2019-05-18T09:15:42.298Z,18.12
2019-05-18T09:18:09.656Z,18.17
2019-05-18T09:20:36.557Z,18.30
2019-05-18T09:23:03.795Z,18.39
2019-05-18T09:25:30.652Z,18.35
2019-05-18T09:27:57.503Z,18.31
2019-05-18T09:30:24.959Z,18.31
2019-05-18T09:32:51.851Z,18.40
2019-05-18T09:35:19.011Z,18.44
2019-05-18T09:37:45.816Z,18.58
2019-05-18T09:40:13.514Z,18.69
2019-05-18T09:42:40.505Z,18.73
2019-05-18T09:45:11.317Z,18.53
2019-05-18T09:47:38.405Z,18.31
2019-05-18T09:50:06.022Z,18.33
2019-05-18T09:52:44.797Z,18.33
2019-05-18T09:55:06.275Z,18.31
2019-05-18T09:57:33.297Z,18.24
2019-05-18T10:00:00.191Z,18.12
2019-05-18T10:02:27.502Z,18.07
2019-05-18T10:04:54.718Z,18.12
2019-05-18T10:07:24.040Z,18.25
2019-05-18T10:09:51.236Z,18.45
2019-05-18T10:12:18.285Z,18.51
2019-05-18T10:14:45.220Z,18.60
2019-05-18T10:17:12.143Z,18.82
2019-05-18T10:19:38.939Z,18.76
2019-05-18T10:22:06.146Z,18.72
2019-05-18T10:24:33.566Z,18.75
2019-05-18T10:27:00.886Z,18.82
2019-05-18T10:29:27.758Z,18.94
2019-05-18T10:31:54.638Z,19.15
2019-05-18T10:34:21.630Z,19.24
2019-05-18T10:36:48.479Z,19.38
2019-05-18T10:39:15.416Z,19.50
2019-05-18T10:41:42.382Z,19.63
2019-05-18T10:44:09.285Z,19.64
2019-05-18T10:46:36.238Z,19.62
2019-05-18T10:49:03.246Z,19.69
2019-05-18T10:51:33.104Z,19.69
2019-05-18T10:54:00.293Z,19.56
2019-05-18T10:56:27.148Z,19.38
2019-05-18T10:58:54.157Z,19.27
2019-05-18T11:01:21.238Z,19.25
2019-05-18T11:03:48.074Z,19.17
2019-05-18T11:06:15.488Z,19.20
2019-05-18T11:08:42.513Z,19.53
2019-05-18T11:11:09.674Z,19.80
2019-05-18T11:13:36.479Z,19.90
2019-05-18T11:16:03.625Z,19.80
2019-05-18T11:18:30.969Z,20.00
2019-05-18T11:20:58.199Z,20.33
2019-05-18T11:23:25.399Z,20.64
2019-05-18T11:25:55.305Z,20.93
2019-05-18T11:28:22.316Z,21.15
2019-05-18T11:30:50.037Z,21.29
2019-05-18T11:33:17.332Z,21.37
2019-05-18T11:35:44.218Z,21.38
2019-05-18T11:38:11.121Z,21.58
2019-05-18T11:40:38.138Z,21.78
2019-05-18T11:43:05.640Z,21.73
2019-05-18T11:45:32.788Z,21.45
2019-05-18T11:47:59.663Z,21.40
2019-05-18T11:50:27.254Z,21.46
2019-05-18T11:52:54.052Z,21.57
2019-05-18T11:55:23.376Z,21.69
2019-05-18T11:57:50.269Z,21.91
2019-05-18T12:00:18.812Z,22.19
2019-05-18T12:02:45.692Z,22.34
2019-05-18T12:05:13.307Z,22.52
2019-05-18T12:07:40.518Z,22.72
2019-05-18T12:10:10.378Z,22.86
2019-05-18T12:12:37.357Z,22.81
2019-05-18T12:15:09.307Z,22.42
2019-05-18T12:17:36.290Z,22.13
2019-05-18T12:20:08.651Z,22.25
2019-05-18T12:22:35.832Z,22.24
2019-05-18T12:25:06.079Z,22.04
2019-05-18T12:27:33.258Z,22.30
2019-05-18T12:30:02.473Z,22.42
2019-05-18T12:32:29.408Z,22.62
2019-05-18T12:34:56.687Z,22.79
2019-05-18T12:37:23.705Z,23.17
2019-05-18T12:39:52.537Z,23.44
2019-05-18T12:42:21.333Z,23.32
2019-05-18T12:44:48.594Z,23.45
2019-05-18T12:47:15.616Z,23.32
2019-05-18T12:49:42.781Z,23.42
2019-05-18T12:52:10.019Z,23.49
2019-05-18T12:54:46.009Z,23.54
2019-05-18T12:57:06.399Z,23.53
2019-05-18T12:59:35.647Z,23.12
2019-05-18T13:02:02.780Z,22.69
2019-05-18T13:04:31.330Z,22.32
2019-05-18T13:06:58.132Z,22.28
2019-05-18T13:09:25.087Z,22.76
2019-05-18T13:11:51.884Z,23.16
2019-05-18T13:14:18.918Z,23.46
2019-05-18T13:16:45.858Z,23.62
2019-05-18T13:19:12.862Z,23.83
2019-05-18T13:21:39.756Z,23.95
2019-05-18T13:24:06.862Z,23.54
2019-05-18T13:26:34.004Z,23.10
2019-05-18T13:29:00.952Z,22.87
2019-05-18T13:31:27.789Z,22.53
2019-05-18T13:33:54.717Z,22.30
2019-05-18T13:36:21.587Z,22.33
2019-05-18T13:38:48.585Z,22.51
2019-05-18T13:41:15.374Z,22.88
2019-05-18T13:43:42.287Z,23.24
2019-05-18T13:46:11.034Z,23.55
2019-05-18T13:48:37.867Z,23.74
2019-05-18T13:51:04.755Z,23.79
2019-05-18T13:53:31.561Z,23.65
2019-05-18T13:55:58.424Z,23.46
2019-05-18T13:58:25.299Z,23.11
2019-05-18T14:00:52.529Z,22.74
2019-05-18T14:03:19.496Z,22.43
2019-05-18T14:05:46.410Z,22.18
2019-05-18T14:08:16.019Z,22.09
2019-05-18T14:10:43.279Z,21.98
2019-05-18T14:13:10.396Z,21.95
2019-05-18T14:15:37.329Z,21.87
2019-05-18T14:18:04.349Z,21.88
2019-05-18T14:20:31.120Z,21.69
2019-05-18T14:22:58.012Z,21.51
2019-05-18T14:25:25.166Z,21.49
2019-05-18T14:27:56.833Z,21.38
2019-05-18T14:30:24.057Z,21.38
2019-05-18T14:32:52.913Z,21.39
2019-05-18T14:35:19.699Z,21.31
2019-05-18T14:37:46.755Z,21.19
2019-05-18T14:40:15.060Z,21.03
2019-05-18T14:42:41.853Z,20.97
2019-05-18T14:45:09.938Z,20.85
2019-05-18T14:47:37.038Z,20.80
2019-05-18T14:50:05.416Z,20.75
2019-05-18T14:52:32.218Z,20.65
2019-05-18T14:54:59.496Z,20.63
2019-05-18T14:57:26.529Z,20.59
2019-05-18T14:59:53.393Z,20.63
2019-05-18T15:02:20.455Z,20.59
2019-05-18T15:04:47.445Z,20.62
2019-05-18T15:07:14.547Z,20.63
2019-05-18T15:09:41.664Z,20.48
2019-05-18T15:12:09.156Z,20.20
2019-05-18T15:14:36.058Z,19.90
2019-05-18T15:17:02.988Z,19.65
2019-05-18T15:19:30.175Z,19.43
2019-05-18T15:21:57.242Z,19.22
2019-05-18T15:24:24.008Z,19.12
2019-05-18T15:26:50.949Z,18.94
2019-05-18T15:29:20.940Z,18.71
2019-05-18T15:31:47.915Z,18.74
2019-05-18T15:34:14.866Z,18.80
2019-05-18T15:36:41.883Z,18.86
2019-05-18T15:39:09.097Z,18.81
2019-05-18T15:41:36.266Z,18.87
2019-05-18T15:44:06.397Z,18.79
2019-05-18T15:46:33.314Z,18.79
2019-05-18T15:49:00.302Z,18.83
2019-05-18T15:51:27.096Z,18.85
2019-05-18T15:53:53.845Z,18.79
2019-05-18T15:56:20.642Z,18.62
2019-05-18T15:58:47.582Z,18.50
2019-05-18T16:01:15.199Z,18.47
2019-05-18T16:03:42.243Z,18.48
2019-05-18T16:06:09.145Z,18.46
2019-05-18T16:08:35.946Z,18.49
2019-05-18T16:11:03.007Z,18.48
2019-05-18T16:13:29.937Z,18.45
2019-05-18T16:15:56.985Z,18.39
2019-05-18T16:18:24.118Z,18.21
2019-05-18T16:20:50.894Z,18.28
2019-05-18T16:23:18.921Z,18.29
2019-05-18T16:25:46.425Z,18.34
2019-05-18T16:28:13.500Z,18.32
2019-05-18T16:30:40.279Z,18.35
2019-05-18T16:33:07.406Z,18.41
2019-05-18T16:35:34.362Z,18.43
2019-05-18T16:38:01.238Z,18.43
2019-05-18T16:40:28.078Z,18.34
2019-05-18T16:42:57.529Z,18.40
2019-05-18T16:45:24.658Z,18.44
2019-05-18T16:47:51.586Z,18.39
2019-05-18T16:50:20.946Z,18.33
2019-05-18T16:52:48.598Z,18.26
2019-05-18T16:55:16.013Z,18.23
2019-05-18T16:57:42.923Z,18.26
2019-05-18T17:00:15.160Z,18.35
2019-05-18T17:02:40.419Z,18.41
2019-05-18T17:05:07.814Z,18.42
2019-05-18T17:07:34.991Z,18.41
2019-05-18T17:10:04.017Z,18.41
2019-05-18T17:12:31.380Z,18.44
2019-05-18T17:14:58.262Z,18.43
2019-05-18T17:17:25.209Z,18.38
2019-05-18T17:19:52.205Z,18.26
2019-05-18T17:22:19.104Z,18.18
2019-05-18T17:24:45.937Z,18.18
2019-05-18T17:27:12.986Z,18.22
2019-05-18T17:29:39.795Z,18.21
2019-05-18T17:32:07.455Z,18.21
2019-05-18T17:34:34.610Z,18.14
2019-05-18T17:37:05.156Z,18.11
2019-05-18T17:39:32.416Z,18.11
2019-05-18T17:41:59.265Z,18.07
2019-05-18T17:44:26.141Z,18.08
2019-05-18T17:46:53.272Z,18.00
2019-05-18T17:49:26.831Z,17.91
2019-05-18T17:51:51.254Z,17.78
2019-05-18T17:54:18.135Z,17.64
2019-05-18T17:56:44.950Z,17.61
2019-05-18T17:59:12.656Z,17.63
2019-05-18T18:01:39.532Z,17.56
2019-05-18T18:04:06.701Z,17.56
2019-05-18T18:06:33.868Z,17.50
2019-05-18T18:09:01.258Z,17.49
2019-05-18T18:11:28.892Z,17.52
2019-05-18T18:13:56.229Z,17.48
2019-05-18T18:16:24.002Z,17.43
2019-05-18T18:18:53.951Z,17.36
2019-05-18T18:21:21.266Z,17.30
2019-05-18T18:23:54.832Z,17.24
2019-05-18T18:26:17.122Z,17.13
2019-05-18T18:28:44.706Z,17.08
2019-05-18T18:31:11.768Z,17.10
2019-05-18T18:33:38.791Z,17.08
2019-05-18T18:36:05.544Z,17.04
2019-05-18T18:38:32.408Z,16.99
2019-05-18T18:40:59.495Z,16.90
2019-05-18T18:43:26.552Z,16.91
2019-05-18T18:45:53.488Z,16.84
2019-05-18T18:48:20.440Z,16.78
2019-05-18T18:50:47.426Z,16.76
2019-05-18T18:53:14.314Z,16.73
2019-05-18T18:55:41.140Z,16.63
2019-05-18T18:58:07.911Z,16.63
2019-05-18T19:00:35.066Z,16.60
2019-05-18T19:03:01.901Z,16.54
2019-05-18T19:05:28.830Z,16.50
2019-05-18T19:07:55.949Z,16.51
2019-05-18T19:10:23.234Z,16.55
2019-05-18T19:12:50.552Z,16.56
2019-05-18T19:15:18.259Z,16.60
2019-05-18T19:17:45.038Z,16.56
2019-05-18T19:20:13.543Z,16.52
2019-05-18T19:22:40.353Z,16.54
2019-05-18T19:25:08.833Z,16.52
2019-05-18T19:27:38.715Z,16.54
2019-05-18T19:30:09.786Z,16.55
2019-05-18T19:32:36.079Z,16.52
2019-05-18T19:35:06.248Z,16.47
2019-05-18T19:37:33.143Z,16.41
2019-05-18T19:40:00.407Z,16.35
2019-05-18T19:42:27.155Z,16.30
2019-05-18T19:44:53.967Z,16.28
2019-05-18T19:47:20.753Z,16.32
2019-05-18T19:49:47.646Z,16.31
2019-05-18T19:52:14.581Z,16.30
2019-05-18T19:54:41.479Z,16.28
2019-05-18T19:57:08.485Z,16.26
2019-05-18T19:59:35.320Z,16.24
2019-05-18T20:02:02.364Z,16.29
2019-05-18T20:04:29.267Z,16.17
2019-05-18T20:06:57.039Z,16.04
2019-05-18T20:09:26.008Z,15.96
2019-05-18T20:11:53.057Z,15.82
2019-05-18T20:14:20.284Z,15.80
2019-05-18T20:16:47.541Z,15.77
2019-05-18T20:19:14.398Z,15.70
2019-05-18T20:21:41.417Z,15.61
2019-05-18T20:24:08.424Z,15.64
2019-05-18T20:26:35.671Z,15.57
2019-05-18T20:29:03.230Z,15.61
2019-05-18T20:31:30.930Z,15.56
2019-05-18T20:34:00.904Z,15.44
2019-05-18T20:36:27.809Z,15.45
2019-05-18T20:38:54.639Z,15.35
2019-05-18T20:41:24.786Z,15.23
2019-05-18T20:44:09.729Z,15.19
2019-05-18T20:46:37.313Z,15.18
2019-05-18T20:49:04.399Z,15.14
2019-05-18T20:51:31.543Z,15.23
2019-05-18T20:53:58.472Z,15.30
2019-05-18T20:56:25.649Z,15.38
2019-05-18T20:58:52.458Z,15.38
2019-05-18T21:01:25.987Z,15.25
2019-05-18T21:03:53.076Z,15.18
2019-05-18T21:06:20.094Z,15.13
2019-05-18T21:08:47.100Z,15.14
2019-05-18T21:11:14.226Z,15.16
2019-05-18T21:13:44.396Z,15.20
2019-05-18T21:16:11.382Z,15.21
2019-05-18T21:18:38.462Z,15.16
2019-05-18T21:21:05.338Z,15.14
2019-05-18T21:23:34.945Z,15.14
2019-05-18T21:26:01.928Z,15.16
2019-05-18T21:28:28.719Z,15.19
2019-05-18T21:30:55.853Z,15.17
2019-05-18T21:33:22.797Z,15.05
2019-05-18T21:35:58.624Z,14.79
2019-05-18T21:38:28.702Z,14.82
2019-05-18T21:40:55.490Z,14.72
2019-05-18T21:43:22.293Z,14.70
2019-05-18T21:45:49.643Z,14.67
2019-05-18T21:48:16.493Z,14.59
2019-05-18T21:50:43.350Z,14.52
2019-05-18T21:53:10.374Z,14.47
2019-05-18T21:55:39.548Z,14.52
2019-05-18T21:58:06.446Z,14.41
2019-05-18T22:00:33.993Z,14.42
2019-05-18T22:03:00.970Z,14.44
2019-05-18T22:05:27.725Z,14.27
2019-05-18T22:07:56.896Z,14.16
2019-05-18T22:10:26.094Z,14.01
2019-05-18T22:12:53.114Z,14.14
2019-05-18T22:15:20.230Z,14.22
2019-05-18T22:18:01.996Z,14.16
2019-05-18T22:20:28.983Z,14.21
2019-05-18T22:22:58.879Z,14.24
2019-05-18T22:25:26.224Z,14.21
2019-05-18T22:27:53.065Z,14.23
2019-05-18T22:30:20.647Z,14.27
2019-05-18T22:32:47.464Z,14.30
2019-05-18T22:35:14.757Z,14.24
2019-05-18T22:37:41.766Z,14.10
2019-05-18T22:40:08.651Z,14.08
2019-05-18T22:42:35.847Z,14.03
2019-05-18T22:45:04.254Z,13.98
2019-05-18T22:47:31.168Z,13.91
2019-05-18T22:49:57.922Z,13.88
2019-05-18T22:52:24.878Z,13.94
2019-05-18T22:54:51.776Z,13.99
2019-05-18T22:57:18.652Z,13.93
2019-05-18T22:59:45.550Z,13.67
2019-05-18T23:02:12.439Z,13.67
2019-05-18T23:04:39.807Z,13.71
2019-05-18T23:07:06.635Z,13.80
2019-05-18T23:09:34.324Z,13.79
2019-05-18T23:12:01.161Z,13.69
2019-05-18T23:14:28.007Z,13.54
2019-05-18T23:16:54.991Z,13.57
2019-05-18T23:19:21.808Z,13.57
2019-05-18T23:21:48.862Z,13.55
2019-05-18T23:24:16.129Z,13.55
2019-05-18T23:26:43.042Z,13.43
2019-05-18T23:29:09.906Z,13.27
2019-05-18T23:31:36.923Z,13.20
2019-05-18T23:34:04.079Z,13.24
2019-05-18T23:36:31.033Z,13.44
2019-05-18T23:38:58.033Z,13.28
2019-05-18T23:41:24.880Z,13.19
2019-05-18T23:43:51.872Z,13.18
2019-05-18T23:46:18.909Z,13.21
2019-05-18T23:48:46.119Z,13.29
2019-05-18T23:51:13.489Z,13.34
2019-05-18T23:53:40.539Z,13.33
2019-05-18T23:56:07.483Z,13.32
2019-05-18T23:58:34.292Z,13.41
